createdAt,value
2017-02-05T00:00:00.827Z,989.41
2017-02-05T00:01:00.840Z,989.44
2017-02-05T00:02:00.855Z,989.44
2017-02-05T00:03:00.867Z,989.42
2017-02-05T00:04:00.881Z,989.46
2017-02-05T00:05:00.893Z,989.44
2017-02-05T00:06:00.910Z,989.49
2017-02-05T00:07:00.918Z,989.47
2017-02-05T00:08:01.039Z,989.48
2017-02-05T00:09:00.945Z,989.48
2017-02-05T00:10:00.960Z,989.46
2017-02-05T00:11:00.968Z,989.45
2017-02-05T00:12:00.984Z,989.46
2017-02-05T00:13:00.995Z,989.45
2017-02-05T00:14:01.011Z,989.42
2017-02-05T00:15:01.020Z,989.42
2017-02-05T00:16:01.037Z,989.38
2017-02-05T00:17:01.047Z,989.36
2017-02-05T00:18:01.060Z,989.38
2017-02-05T00:19:01.074Z,989.35
2017-02-05T00:20:01.085Z,989.33
2017-02-05T00:21:01.098Z,989.34
2017-02-05T00:22:01.112Z,989.34
2017-02-05T00:23:01.125Z,989.36
2017-02-05T00:24:01.138Z,989.33
2017-02-05T00:25:01.150Z,989.33
2017-02-05T00:26:01.182Z,989.35
2017-02-05T00:27:01.174Z,989.38
2017-02-05T00:28:01.194Z,989.38
2017-02-05T00:29:01.201Z,989.45
2017-02-05T00:30:01.223Z,989.38
2017-02-05T00:31:01.227Z,989.4
2017-02-05T00:32:01.244Z,989.41
2017-02-05T00:33:01.252Z,989.43
2017-02-05T00:34:01.265Z,989.42
2017-02-05T00:35:01.276Z,989.45
2017-02-05T00:36:01.294Z,989.4
2017-02-05T00:37:01.301Z,989.38
2017-02-05T00:38:01.321Z,989.36
2017-02-05T00:39:01.328Z,989.39
2017-02-05T00:40:01.342Z,989.37
2017-02-05T00:41:01.352Z,989.35
2017-02-05T00:42:01.365Z,989.33
2017-02-05T00:43:01.378Z,989.33
2017-02-05T00:44:01.395Z,989.32
2017-02-05T00:45:01.404Z,989.32
2017-02-05T00:46:01.422Z,989.32
2017-02-05T00:47:01.429Z,989.31
2017-02-05T00:48:01.441Z,989.32
2017-02-05T00:49:01.455Z,989.31
2017-02-05T00:50:01.470Z,989.37
2017-02-05T00:51:01.483Z,989.37
2017-02-05T00:52:01.493Z,989.36
2017-02-05T00:53:01.504Z,989.4
2017-02-05T00:54:01.521Z,989.44
2017-02-05T00:55:01.596Z,989.43
2017-02-05T00:56:01.543Z,989.43
2017-02-05T00:57:01.555Z,989.44
2017-02-05T00:58:01.569Z,989.43
2017-02-05T00:59:01.579Z,989.43
2017-02-05T01:00:01.593Z,989.4
2017-02-05T01:01:01.607Z,989.39
2017-02-05T01:02:01.619Z,989.41
2017-02-05T01:03:01.632Z,989.34
2017-02-05T01:04:01.644Z,989.34
2017-02-05T01:05:01.657Z,989.37
2017-02-05T01:06:01.675Z,989.35
2017-02-05T01:07:01.683Z,989.35
2017-02-05T01:08:01.695Z,989.32
2017-02-05T01:09:01.706Z,989.35
2017-02-05T01:10:01.724Z,989.34
2017-02-05T01:11:01.732Z,989.33
2017-02-05T01:12:01.745Z,989.34
2017-02-05T01:13:01.755Z,989.34
2017-02-05T01:14:01.768Z,989.33
2017-02-05T01:15:01.781Z,989.37
2017-02-05T01:16:01.793Z,989.35
2017-02-05T01:17:01.806Z,989.36
2017-02-05T01:18:01.823Z,989.35
2017-02-05T01:19:01.895Z,989.35
2017-02-05T01:20:01.844Z,989.32
2017-02-05T01:21:01.857Z,989.31
2017-02-05T01:22:01.868Z,989.3
2017-02-05T01:23:01.881Z,989.25
2017-02-05T01:24:01.892Z,989.26
2017-02-05T01:25:01.905Z,989.27
2017-02-05T01:26:01.917Z,989.26
2017-02-05T01:27:01.931Z,989.34
2017-02-05T01:28:01.943Z,989.3
2017-02-05T01:29:01.958Z,989.35
2017-02-05T01:30:01.976Z,989.37
2017-02-05T01:31:01.981Z,989.35
2017-02-05T01:32:01.992Z,989.37
2017-02-05T01:33:02.005Z,989.36
2017-02-05T01:34:02.016Z,989.38
2017-02-05T01:35:02.028Z,989.32
2017-02-05T01:36:02.041Z,989.34
2017-02-05T01:37:02.053Z,989.33
2017-02-05T01:38:02.064Z,989.31
2017-02-05T01:39:02.076Z,989.3
2017-02-05T01:40:02.091Z,989.31
2017-02-05T01:41:02.106Z,989.28
2017-02-05T01:42:02.119Z,989.32
2017-02-05T01:43:02.125Z,989.3
2017-02-05T01:44:02.140Z,989.28
2017-02-05T01:45:02.153Z,989.27
2017-02-05T01:46:02.164Z,989.29
2017-02-05T01:47:02.175Z,989.3
2017-02-05T01:48:02.188Z,989.29
2017-02-05T01:49:02.200Z,989.33
2017-02-05T01:50:02.213Z,989.27
2017-02-05T01:51:02.224Z,989.27
2017-02-05T01:52:02.237Z,989.26
2017-02-05T01:53:02.250Z,989.3
2017-02-05T01:54:02.265Z,989.24
2017-02-05T01:55:02.274Z,989.25
2017-02-05T01:56:02.287Z,989.26
2017-02-05T01:57:02.299Z,989.28
2017-02-05T01:58:02.309Z,989.26
2017-02-05T01:59:02.323Z,989.23
2017-02-05T02:00:02.335Z,989.23
2017-02-05T02:01:02.347Z,989.21
2017-02-05T02:02:02.357Z,989.24
2017-02-05T02:03:02.371Z,989.26
2017-02-05T02:04:02.382Z,989.26
2017-02-05T02:05:02.395Z,989.26
2017-02-05T02:06:02.408Z,989.26
2017-02-05T02:07:02.421Z,989.28
2017-02-05T02:08:02.432Z,989.23
2017-02-05T02:09:02.442Z,989.24
2017-02-05T02:10:02.456Z,989.27
2017-02-05T02:11:02.467Z,989.24
2017-02-05T02:12:02.478Z,989.21
2017-02-05T02:13:02.491Z,989.22
2017-02-05T02:14:02.503Z,989.22
2017-02-05T02:15:02.518Z,989.22
2017-02-05T02:16:02.529Z,989.21
2017-02-05T02:17:02.541Z,989.21
2017-02-05T02:18:02.553Z,989.21
2017-02-05T02:19:02.566Z,989.25
2017-02-05T02:20:02.577Z,989.25
2017-02-05T02:21:02.590Z,989.26
2017-02-05T02:22:02.603Z,989.21
2017-02-05T02:23:02.612Z,989.24
2017-02-05T02:24:02.626Z,989.29
2017-02-05T02:25:02.638Z,989.28
2017-02-05T02:26:02.652Z,989.29
2017-02-05T02:27:02.663Z,989.29
2017-02-05T02:28:02.676Z,989.31
2017-02-05T02:29:02.690Z,989.33
2017-02-05T02:30:02.700Z,989.35
2017-02-05T02:31:02.712Z,989.35
2017-02-05T02:32:02.724Z,989.32
2017-02-05T02:33:02.739Z,989.39
2017-02-05T02:34:02.748Z,989.38
2017-02-05T02:35:02.761Z,989.39
2017-02-05T02:36:02.773Z,989.37
2017-02-05T02:37:02.786Z,989.38
2017-02-05T02:38:02.797Z,989.32
2017-02-05T02:39:02.809Z,989.36
2017-02-05T02:40:02.820Z,989.32
2017-02-05T02:41:02.832Z,989.33
2017-02-05T02:42:02.844Z,989.38
2017-02-05T02:43:02.857Z,989.32
2017-02-05T02:44:02.870Z,989.37
2017-02-05T02:45:02.882Z,989.33
2017-02-05T02:46:02.895Z,989.34
2017-02-05T02:47:02.907Z,989.36
2017-02-05T02:48:02.919Z,989.4
2017-02-05T02:49:02.929Z,989.38
2017-02-05T02:50:02.942Z,989.41
2017-02-05T02:51:02.954Z,989.39
2017-02-05T02:52:02.965Z,989.41
2017-02-05T02:53:02.979Z,989.36
2017-02-05T02:54:02.991Z,989.36
2017-02-05T02:55:03.004Z,989.41
2017-02-05T02:56:03.014Z,989.37
2017-02-05T02:57:03.027Z,989.41
2017-02-05T02:58:03.041Z,989.44
2017-02-05T02:59:03.051Z,989.41
2017-02-05T03:00:03.063Z,989.43
2017-02-05T03:01:03.074Z,989.43
2017-02-05T03:02:03.089Z,989.44
2017-02-05T03:03:03.099Z,989.46
2017-02-05T03:04:03.110Z,989.46
2017-02-05T03:05:03.124Z,989.48
2017-02-05T03:06:03.136Z,989.5
2017-02-05T03:07:03.148Z,989.47
2017-02-05T03:08:03.161Z,989.53
2017-02-05T03:09:03.172Z,989.5
2017-02-05T03:10:03.187Z,989.51
2017-02-05T03:11:03.196Z,989.51
2017-02-05T03:12:03.209Z,989.53
2017-02-05T03:13:03.220Z,989.55
2017-02-05T03:14:03.230Z,989.59
2017-02-05T03:15:03.241Z,989.58
2017-02-05T03:16:03.351Z,989.59
2017-02-05T03:17:03.360Z,989.6
2017-02-05T03:18:03.280Z,989.63
2017-02-05T03:19:03.394Z,989.6
2017-02-05T03:20:03.301Z,989.63
2017-02-05T03:21:03.326Z,989.62
2017-02-05T03:22:03.327Z,989.6
2017-02-05T03:23:03.340Z,989.59
2017-02-05T03:24:03.502Z,989.61
2017-02-05T03:25:03.364Z,989.63
2017-02-05T03:26:03.375Z,989.63
2017-02-05T03:27:03.389Z,989.64
2017-02-05T03:28:03.403Z,989.64
2017-02-05T03:29:03.412Z,989.64
2017-02-05T03:30:03.423Z,989.6
2017-02-05T03:31:03.436Z,989.64
2017-02-05T03:32:03.447Z,989.63
2017-02-05T03:33:03.459Z,989.61
2017-02-05T03:34:03.474Z,989.62
2017-02-05T03:35:03.485Z,989.66
2017-02-05T03:36:03.495Z,989.62
2017-02-05T03:37:03.507Z,989.64
2017-02-05T03:38:03.520Z,989.67
2017-02-05T03:39:03.533Z,989.65
2017-02-05T03:40:03.544Z,989.63
2017-02-05T03:41:03.557Z,989.65
2017-02-05T03:42:03.567Z,989.64
2017-02-05T03:43:03.578Z,989.68
2017-02-05T03:44:03.593Z,989.72
2017-02-05T03:45:03.605Z,989.74
2017-02-05T03:46:03.617Z,989.75
2017-02-05T03:47:03.627Z,989.75
2017-02-05T03:48:03.639Z,989.79
2017-02-05T03:49:03.653Z,989.82
2017-02-05T03:50:03.664Z,989.77
2017-02-05T03:51:03.675Z,989.78
2017-02-05T03:52:03.687Z,989.79
2017-02-05T03:53:03.700Z,989.79
2017-02-05T03:54:03.713Z,989.77
2017-02-05T03:55:03.723Z,989.79
2017-02-05T03:56:03.736Z,989.81
2017-02-05T03:57:03.747Z,989.83
2017-02-05T03:58:03.759Z,989.86
2017-02-05T03:59:03.772Z,989.89
2017-02-05T04:00:03.784Z,989.88
2017-02-05T04:01:03.797Z,989.87
2017-02-05T04:02:03.808Z,989.89
2017-02-05T04:03:03.820Z,989.87
2017-02-05T04:04:03.833Z,989.91
2017-02-05T04:05:03.845Z,989.94
2017-02-05T04:06:03.854Z,989.97
2017-02-05T04:07:03.867Z,989.97
2017-02-05T04:08:03.882Z,990
2017-02-05T04:09:03.893Z,990.03
2017-02-05T04:10:03.906Z,990
2017-02-05T04:11:03.918Z,990.05
2017-02-05T04:12:03.928Z,990
2017-02-05T04:13:03.939Z,990.03
2017-02-05T04:14:03.952Z,990.02
2017-02-05T04:15:03.964Z,990.06
2017-02-05T04:16:03.976Z,990.02
2017-02-05T04:17:03.988Z,989.97
2017-02-05T04:18:04.000Z,990.02
2017-02-05T04:19:04.014Z,990.03
2017-02-05T04:20:04.024Z,990
2017-02-05T04:21:04.036Z,990.01
2017-02-05T04:22:04.049Z,990.03
2017-02-05T04:23:04.060Z,989.98
2017-02-05T04:24:04.072Z,989.97
2017-02-05T04:25:04.084Z,989.98
2017-02-05T04:26:04.096Z,990.01
2017-02-05T04:27:04.108Z,989.99
2017-02-05T04:28:04.121Z,990.02
2017-02-05T04:29:04.133Z,990.03
2017-02-05T04:30:04.145Z,990.02
2017-02-05T04:31:04.155Z,990.01
2017-02-05T04:32:04.169Z,990.03
2017-02-05T04:33:04.179Z,989.99
2017-02-05T04:34:04.190Z,989.97
2017-02-05T04:35:04.204Z,989.95
2017-02-05T04:36:04.217Z,989.96
2017-02-05T04:37:04.229Z,989.94
2017-02-05T04:38:04.240Z,989.93
2017-02-05T04:39:04.251Z,990.02
2017-02-05T04:40:04.266Z,990.02
2017-02-05T04:41:04.277Z,989.97
2017-02-05T04:42:04.289Z,989.99
2017-02-05T04:43:04.300Z,990
2017-02-05T04:44:04.313Z,990
2017-02-05T04:45:04.323Z,990.03
2017-02-05T04:46:04.336Z,989.99
2017-02-05T04:47:04.348Z,990.04
2017-02-05T04:48:04.362Z,989.99
2017-02-05T04:49:04.373Z,989.99
2017-02-05T04:50:04.385Z,990.01
2017-02-05T04:51:04.398Z,990.03
2017-02-05T04:52:04.409Z,990.02
2017-02-05T04:53:04.422Z,990.03
2017-02-05T04:54:04.433Z,990.04
2017-02-05T04:55:04.445Z,990.03
2017-02-05T04:56:04.455Z,990
2017-02-05T04:57:04.468Z,990.05
2017-02-05T04:58:04.481Z,990.04
2017-02-05T04:59:04.491Z,990.07
2017-02-05T05:00:04.505Z,990.08
2017-02-05T05:01:04.518Z,990.07
2017-02-05T05:02:04.530Z,990.14
2017-02-05T05:03:04.542Z,990.12
2017-02-05T05:04:04.553Z,990.12
2017-02-05T05:05:04.566Z,990.15
2017-02-05T05:06:04.579Z,990.16
2017-02-05T05:07:04.590Z,990.13
2017-02-05T05:08:04.602Z,990.15
2017-02-05T05:09:04.614Z,990.19
2017-02-05T05:10:04.738Z,990.17
2017-02-05T05:11:04.636Z,990.17
2017-02-05T05:12:04.671Z,990.2
2017-02-05T05:13:04.662Z,990.18
2017-02-05T05:14:04.677Z,990.19
2017-02-05T05:15:04.687Z,990.19
2017-02-05T05:16:04.699Z,990.18
2017-02-05T05:17:04.711Z,990.15
2017-02-05T05:18:04.722Z,990.14
2017-02-05T05:19:04.736Z,990.13
2017-02-05T05:20:04.747Z,990.18
2017-02-05T05:21:04.759Z,990.2
2017-02-05T05:22:04.770Z,990.18
2017-02-05T05:23:04.784Z,990.18
2017-02-05T05:24:04.796Z,990.18
2017-02-05T05:25:04.807Z,990.2
2017-02-05T05:26:04.861Z,990.22
2017-02-05T05:27:04.832Z,990.24
2017-02-05T05:28:04.845Z,990.26
2017-02-05T05:29:04.857Z,990.28
2017-02-05T05:30:04.866Z,990.26
2017-02-05T05:31:04.879Z,990.26
2017-02-05T05:32:04.893Z,990.29
2017-02-05T05:33:04.904Z,990.23
2017-02-05T05:34:04.916Z,990.29
2017-02-05T05:35:04.929Z,990.31
2017-02-05T05:36:04.939Z,990.3
2017-02-05T05:37:04.955Z,990.32
2017-02-05T05:38:04.966Z,990.32
2017-02-05T05:39:04.978Z,990.33
2017-02-05T05:40:04.987Z,990.33
2017-02-05T05:41:05.004Z,990.33
2017-02-05T05:42:05.012Z,990.3
2017-02-05T05:43:05.026Z,990.3
2017-02-05T05:44:05.037Z,990.32
2017-02-05T05:45:05.050Z,990.36
2017-02-05T05:46:05.146Z,990.31
2017-02-05T05:47:05.075Z,990.33
2017-02-05T05:48:05.085Z,990.37
2017-02-05T05:49:05.099Z,990.39
2017-02-05T05:50:05.110Z,990.37
2017-02-05T05:51:05.123Z,990.37
2017-02-05T05:52:05.135Z,990.39
2017-02-05T05:53:05.152Z,990.35
2017-02-05T05:54:05.159Z,990.4
2017-02-05T05:55:05.171Z,990.38
2017-02-05T05:56:05.183Z,990.39
2017-02-05T05:57:05.196Z,990.39
2017-02-05T05:58:05.207Z,990.39
2017-02-05T05:59:05.219Z,990.4
2017-02-05T06:00:05.231Z,990.38
2017-02-05T06:01:05.243Z,990.43
2017-02-05T06:02:05.254Z,990.4
2017-02-05T06:03:05.268Z,990.43
2017-02-05T06:04:05.280Z,990.43
2017-02-05T06:05:05.293Z,990.42
2017-02-05T06:06:05.318Z,990.46
2017-02-05T06:07:05.316Z,990.43
2017-02-05T06:08:05.333Z,990.49
2017-02-05T06:09:05.341Z,990.46
2017-02-05T06:10:05.373Z,990.46
2017-02-05T06:11:05.365Z,990.44
2017-02-05T06:12:05.377Z,990.47
2017-02-05T06:13:05.391Z,990.49
2017-02-05T06:14:05.610Z,990.48
2017-02-05T06:15:05.414Z,990.47
2017-02-05T06:16:05.426Z,990.49
2017-02-05T06:17:05.438Z,990.46
2017-02-05T06:18:05.449Z,990.51
2017-02-05T06:19:05.466Z,990.49
2017-02-05T06:20:05.473Z,990.45
2017-02-05T06:21:05.485Z,990.51
2017-02-05T06:22:05.498Z,990.44
2017-02-05T06:23:05.509Z,990.43
2017-02-05T06:24:05.522Z,990.43
2017-02-05T06:25:05.534Z,990.46
2017-02-05T06:26:05.546Z,990.44
2017-02-05T06:27:05.559Z,990.46
2017-02-05T06:28:05.599Z,990.44
2017-02-05T06:29:05.583Z,990.47
2017-02-05T06:30:05.595Z,990.47
2017-02-05T06:31:05.606Z,990.5
2017-02-05T06:32:05.618Z,990.51
2017-02-05T06:33:05.631Z,990.51
2017-02-05T06:34:05.743Z,990.55
2017-02-05T06:35:05.656Z,990.5
2017-02-05T06:36:05.667Z,990.56
2017-02-05T06:37:05.681Z,990.54
2017-02-05T06:38:05.693Z,990.54
2017-02-05T06:39:05.704Z,990.58
2017-02-05T06:40:05.716Z,990.6
2017-02-05T06:41:05.729Z,990.6
2017-02-05T06:42:05.742Z,990.6
2017-02-05T06:43:05.753Z,990.66
2017-02-05T06:44:05.765Z,990.66
2017-02-05T06:45:05.778Z,990.67
2017-02-05T06:46:05.788Z,990.64
2017-02-05T06:47:05.803Z,990.65
2017-02-05T06:48:05.875Z,990.7
2017-02-05T06:49:05.827Z,990.69
2017-02-05T06:50:05.838Z,990.69
2017-02-05T06:51:05.850Z,990.71
2017-02-05T06:52:05.865Z,990.71
2017-02-05T06:53:05.876Z,990.72
2017-02-05T06:54:05.889Z,990.75
2017-02-05T06:55:05.904Z,990.77
2017-02-05T06:56:05.913Z,990.79
2017-02-05T06:57:05.925Z,990.79
2017-02-05T06:58:06.028Z,990.78
2017-02-05T06:59:06.026Z,990.78
2017-02-05T07:00:06.059Z,990.79
2017-02-05T07:01:06.044Z,990.83
2017-02-05T07:02:06.077Z,990.81
2017-02-05T07:03:06.093Z,990.82
2017-02-05T07:04:06.085Z,990.87
2017-02-05T07:05:06.023Z,990.9
2017-02-05T07:06:06.035Z,990.89
2017-02-05T07:07:06.048Z,990.88
2017-02-05T07:08:06.060Z,990.89
2017-02-05T07:09:06.074Z,990.93
2017-02-05T07:10:06.085Z,990.91
2017-02-05T07:11:06.098Z,990.92
2017-02-05T07:12:06.147Z,990.88
2017-02-05T07:13:06.123Z,990.94
2017-02-05T07:14:06.135Z,990.93
2017-02-05T07:15:06.147Z,990.94
2017-02-05T07:16:06.159Z,990.99
2017-02-05T07:17:06.171Z,990.99
2017-02-05T07:18:06.185Z,991.03
2017-02-05T07:19:06.197Z,991.08
2017-02-05T07:20:06.208Z,991.07
2017-02-05T07:21:06.222Z,991.08
2017-02-05T07:22:06.235Z,991.09
2017-02-05T07:23:06.246Z,991.07
2017-02-05T07:24:06.259Z,991.06
2017-02-05T07:25:06.270Z,991.07
2017-02-05T07:26:06.282Z,991.09
2017-02-05T07:27:06.296Z,991.12
2017-02-05T07:28:06.311Z,991.11
2017-02-05T07:29:06.322Z,991.09
2017-02-05T07:30:06.433Z,991.11
2017-02-05T07:31:06.346Z,991.07
2017-02-05T07:32:06.358Z,991.09
2017-02-05T07:33:06.390Z,991.05
2017-02-05T07:34:06.484Z,991.05
2017-02-05T07:35:06.395Z,991.05
2017-02-05T07:36:06.416Z,991.08
2017-02-05T07:37:06.420Z,991.07
2017-02-05T07:38:06.435Z,991.07
2017-02-05T07:39:06.444Z,991.11
2017-02-05T07:40:06.456Z,991.12
2017-02-05T07:41:06.469Z,991.13
2017-02-05T07:42:06.481Z,991.15
2017-02-05T07:43:06.495Z,991.12
2017-02-05T07:44:06.505Z,991.13
2017-02-05T07:45:06.521Z,991.08
2017-02-05T07:46:06.532Z,991.1
2017-02-05T07:47:06.544Z,991.12
2017-02-05T07:48:06.557Z,991.1
2017-02-05T07:49:06.569Z,991.1
2017-02-05T07:50:06.580Z,991.12
2017-02-05T07:51:06.594Z,991.12
2017-02-05T07:52:06.605Z,991.1
2017-02-05T07:53:06.618Z,991.12
2017-02-05T07:54:06.631Z,991.09
2017-02-05T07:55:06.643Z,991.13
2017-02-05T07:56:06.658Z,991.12
2017-02-05T07:57:06.669Z,991.13
2017-02-05T07:58:06.681Z,991.14
2017-02-05T07:59:06.693Z,991.18
2017-02-05T08:00:06.705Z,991.15
2017-02-05T08:01:06.719Z,991.17
2017-02-05T08:02:06.728Z,991.2
2017-02-05T08:03:06.743Z,991.2
2017-02-05T08:04:06.756Z,991.21
2017-02-05T08:05:06.769Z,991.18
2017-02-05T08:06:06.778Z,991.18
2017-02-05T08:07:06.792Z,991.19
2017-02-05T08:08:06.807Z,991.23
2017-02-05T08:09:06.818Z,991.21
2017-02-05T08:10:06.830Z,991.19
2017-02-05T08:11:06.842Z,991.16
2017-02-05T08:12:06.857Z,991.24
2017-02-05T08:13:06.867Z,991.25
2017-02-05T08:14:06.879Z,991.24
2017-02-05T08:15:06.893Z,991.23
2017-02-05T08:16:06.905Z,991.26
2017-02-05T08:17:06.919Z,991.26
2017-02-05T08:18:06.930Z,991.26
2017-02-05T08:19:06.942Z,991.26
2017-02-05T08:20:06.955Z,991.3
2017-02-05T08:21:06.967Z,991.34
2017-02-05T08:22:06.980Z,991.31
2017-02-05T08:23:06.993Z,991.35
2017-02-05T08:24:07.006Z,991.37
2017-02-05T08:25:07.018Z,991.37
2017-02-05T08:26:07.030Z,991.4
2017-02-05T08:27:07.043Z,991.42
2017-02-05T08:28:07.056Z,991.45
2017-02-05T08:29:07.068Z,991.44
2017-02-05T08:30:07.080Z,991.42
2017-02-05T08:31:07.094Z,991.42
2017-02-05T08:32:07.106Z,991.45
2017-02-05T08:33:07.118Z,991.45
2017-02-05T08:34:07.132Z,991.45
2017-02-05T08:35:07.145Z,991.49
2017-02-05T08:36:07.241Z,991.43
2017-02-05T08:37:07.169Z,991.46
2017-02-05T08:38:07.182Z,991.45
2017-02-05T08:39:07.194Z,991.44
2017-02-05T08:40:07.205Z,991.45
2017-02-05T08:41:07.219Z,991.45
2017-02-05T08:42:07.232Z,991.47
2017-02-05T08:43:07.245Z,991.46
2017-02-05T08:44:07.258Z,991.48
2017-02-05T08:45:07.270Z,991.53
2017-02-05T08:46:07.283Z,991.53
2017-02-05T08:47:07.296Z,991.53
2017-02-05T08:48:07.308Z,991.5
2017-02-05T08:49:07.321Z,991.52
2017-02-05T08:50:07.334Z,991.49
2017-02-05T08:51:07.347Z,991.52
2017-02-05T08:52:07.359Z,991.5
2017-02-05T08:53:07.371Z,991.52
2017-02-05T08:54:07.381Z,991.54
2017-02-05T08:55:07.398Z,991.51
2017-02-05T08:56:07.409Z,991.55
2017-02-05T08:57:07.422Z,991.53
2017-02-05T08:58:07.436Z,991.6
2017-02-05T08:59:07.446Z,991.61
2017-02-05T09:00:07.461Z,991.57
2017-02-05T09:01:07.474Z,991.61
2017-02-05T09:02:07.486Z,991.68
2017-02-05T09:03:07.500Z,991.61
2017-02-05T09:04:07.513Z,991.65
2017-02-05T09:05:07.525Z,991.65
2017-02-05T09:06:07.537Z,991.63
2017-02-05T09:07:07.551Z,991.63
2017-02-05T09:08:07.564Z,991.66
2017-02-05T09:09:07.575Z,991.65
2017-02-05T09:10:07.588Z,991.63
2017-02-05T09:11:07.601Z,991.63
2017-02-05T09:12:07.612Z,991.62
2017-02-05T09:13:07.627Z,991.64
2017-02-05T09:14:07.639Z,991.65
2017-02-05T09:15:07.652Z,991.66
2017-02-05T09:16:07.665Z,991.68
2017-02-05T09:17:07.678Z,991.68
2017-02-05T09:18:07.690Z,991.69
2017-02-05T09:19:07.703Z,991.7
2017-02-05T09:20:07.717Z,991.7
2017-02-05T09:21:07.729Z,991.7
2017-02-05T09:22:07.744Z,991.69
2017-02-05T09:23:07.780Z,991.72
2017-02-05T09:24:07.789Z,991.72
2017-02-05T09:25:07.789Z,991.78
2017-02-05T09:26:07.935Z,991.75
2017-02-05T09:27:07.806Z,991.78
2017-02-05T09:28:07.821Z,991.77
2017-02-05T09:29:07.837Z,991.78
2017-02-05T09:30:07.844Z,991.78
2017-02-05T09:31:07.959Z,991.77
2017-02-05T09:32:07.879Z,991.77
2017-02-05T09:33:07.885Z,991.75
2017-02-05T09:34:07.897Z,991.74
2017-02-05T09:35:07.911Z,991.74
2017-02-05T09:36:07.923Z,991.75
2017-02-05T09:37:07.936Z,991.75
2017-02-05T09:38:07.977Z,991.73
2017-02-05T09:39:07.961Z,991.73
2017-02-05T09:40:07.975Z,991.75
2017-02-05T09:41:07.989Z,991.74
2017-02-05T09:42:08.000Z,991.73
2017-02-05T09:43:08.014Z,991.78
2017-02-05T09:44:08.028Z,991.77
2017-02-05T09:45:08.039Z,991.78
2017-02-05T09:46:08.081Z,991.78
2017-02-05T09:47:08.067Z,991.84
2017-02-05T09:48:08.078Z,991.85
2017-02-05T09:49:08.093Z,991.85
2017-02-05T09:50:08.944Z,991.87
2017-02-05T09:51:08.118Z,991.86
2017-02-05T09:52:08.130Z,991.85
2017-02-05T09:53:08.144Z,991.85
2017-02-05T09:54:08.157Z,991.9
2017-02-05T09:55:08.168Z,991.9
2017-02-05T09:56:08.183Z,991.87
2017-02-05T09:57:08.194Z,991.9
2017-02-05T09:58:08.209Z,991.86
2017-02-05T09:59:08.221Z,991.82
2017-02-05T10:00:08.235Z,991.88
2017-02-05T10:01:08.249Z,991.87
2017-02-05T10:02:08.261Z,991.9
2017-02-05T10:03:08.274Z,991.85
2017-02-05T10:04:08.287Z,991.87
2017-02-05T10:05:08.300Z,991.91
2017-02-05T10:06:08.314Z,991.89
2017-02-05T10:07:08.326Z,991.85
2017-02-05T10:08:08.339Z,991.88
2017-02-05T10:09:08.352Z,991.9
2017-02-05T10:10:08.371Z,991.85
2017-02-05T10:11:08.379Z,991.89
2017-02-05T10:12:08.392Z,991.91
2017-02-05T10:13:08.406Z,991.89
2017-02-05T10:14:08.417Z,991.92
2017-02-05T10:15:08.434Z,991.86
2017-02-05T10:16:08.445Z,991.9
2017-02-05T10:17:08.459Z,991.91
2017-02-05T10:18:08.472Z,991.93
2017-02-05T10:19:08.484Z,991.92
2017-02-05T10:20:08.497Z,991.91
2017-02-05T10:21:08.512Z,991.9
2017-02-05T10:22:08.524Z,991.88
2017-02-05T10:23:08.538Z,991.85
2017-02-05T10:24:08.552Z,991.82
2017-02-05T10:25:08.564Z,991.82
2017-02-05T10:26:08.578Z,991.8
2017-02-05T10:27:08.598Z,991.8
2017-02-05T10:28:08.604Z,991.8
2017-02-05T10:29:08.617Z,991.87
2017-02-05T10:30:08.630Z,991.79
2017-02-05T10:31:08.645Z,991.81
2017-02-05T10:32:08.659Z,991.81
2017-02-05T10:33:08.669Z,991.82
2017-02-05T10:34:08.684Z,991.83
2017-02-05T10:35:08.698Z,991.82
2017-02-05T10:36:08.710Z,991.8
2017-02-05T10:37:08.726Z,991.81
2017-02-05T10:38:08.739Z,991.8
2017-02-05T10:39:08.752Z,991.81
2017-02-05T10:40:08.863Z,991.8
2017-02-05T10:41:08.861Z,991.81
2017-02-05T10:42:08.878Z,991.78
2017-02-05T10:43:08.805Z,991.79
2017-02-05T10:44:08.818Z,991.78
2017-02-05T10:45:08.831Z,991.79
2017-02-05T10:46:08.846Z,991.76
2017-02-05T10:47:08.868Z,991.78
2017-02-05T10:48:08.872Z,991.76
2017-02-05T10:49:08.885Z,991.8
2017-02-05T10:50:08.899Z,991.82
2017-02-05T10:51:08.912Z,991.84
2017-02-05T10:52:08.925Z,991.78
2017-02-05T10:53:08.940Z,991.75
2017-02-05T10:54:08.951Z,991.78
2017-02-05T10:55:08.966Z,991.76
2017-02-05T10:56:08.980Z,991.77
2017-02-05T10:57:08.994Z,991.76
2017-02-05T10:58:09.008Z,991.76
2017-02-05T10:59:09.021Z,991.77
2017-02-05T11:00:09.034Z,991.74
2017-02-05T11:01:09.048Z,991.76
2017-02-05T11:02:09.062Z,991.75
2017-02-05T11:03:09.075Z,991.76
2017-02-05T11:04:09.090Z,991.8
2017-02-05T11:05:09.101Z,991.79
2017-02-05T11:06:09.116Z,991.8
2017-02-05T11:07:09.129Z,991.76
2017-02-05T11:08:09.144Z,991.8
2017-02-05T11:09:09.157Z,991.84
2017-02-05T11:10:09.168Z,991.85
2017-02-05T11:11:09.183Z,991.85
2017-02-05T11:12:09.200Z,991.84
2017-02-05T11:13:09.212Z,991.87
2017-02-05T11:14:09.226Z,991.83
2017-02-05T11:15:09.239Z,991.87
2017-02-05T11:16:09.251Z,991.84
2017-02-05T11:17:09.267Z,991.88
2017-02-05T11:18:09.281Z,991.79
2017-02-05T11:19:09.295Z,991.82
2017-02-05T11:20:09.307Z,991.82
2017-02-05T11:21:09.321Z,991.8
2017-02-05T11:22:09.386Z,991.78
2017-02-05T11:23:09.348Z,991.8
2017-02-05T11:24:09.362Z,991.86
2017-02-05T11:25:09.379Z,991.84
2017-02-05T11:26:09.391Z,991.86
2017-02-05T11:27:09.403Z,991.9
2017-02-05T11:28:09.419Z,991.89
2017-02-05T11:29:09.432Z,991.96
2017-02-05T11:30:09.447Z,991.97
2017-02-05T11:31:09.459Z,991.97
2017-02-05T11:32:09.473Z,991.97
2017-02-05T11:33:09.488Z,991.95
2017-02-05T11:34:09.502Z,991.98
2017-02-05T11:35:09.513Z,991.99
2017-02-05T11:36:09.529Z,991.98
2017-02-05T11:37:09.543Z,992
2017-02-05T11:38:09.557Z,991.98
2017-02-05T11:39:09.571Z,991.98
2017-02-05T11:40:09.585Z,991.97
2017-02-05T11:41:09.599Z,991.96
2017-02-05T11:42:09.612Z,991.94
2017-02-05T11:43:09.627Z,991.99
2017-02-05T11:44:09.641Z,991.98
2017-02-05T11:45:09.654Z,992.03
2017-02-05T11:46:09.668Z,992.03
2017-02-05T11:47:09.684Z,992.01
2017-02-05T11:48:09.697Z,991.99
2017-02-05T11:49:09.710Z,992.02
2017-02-05T11:50:09.724Z,992.03
2017-02-05T11:51:09.737Z,992.03
2017-02-05T11:52:09.752Z,992.05
2017-02-05T11:53:09.766Z,992.04
2017-02-05T11:54:09.780Z,992.03
2017-02-05T11:55:09.794Z,992.08
2017-02-05T11:56:09.811Z,992.1
2017-02-05T11:57:09.824Z,992.1
2017-02-05T11:58:09.837Z,992.07
2017-02-05T11:59:09.850Z,992.11
2017-02-05T12:00:09.864Z,992.14
2017-02-05T12:01:09.880Z,992.12
2017-02-05T12:02:09.912Z,992.1
2017-02-05T12:03:09.908Z,992.11
2017-02-05T12:04:09.938Z,992.1
2017-02-05T12:05:09.936Z,992.14
2017-02-05T12:06:09.949Z,992.09
2017-02-05T12:07:09.962Z,992.12
2017-02-05T12:08:09.979Z,992.1
2017-02-05T12:09:09.991Z,992.11
2017-02-05T12:10:10.005Z,992.07
2017-02-05T12:11:10.038Z,992.1
2017-02-05T12:12:10.035Z,992.08
2017-02-05T12:13:10.049Z,992.09
2017-02-05T12:14:10.076Z,992.09
2017-02-05T12:15:10.076Z,992.05
2017-02-05T12:16:10.091Z,992.07
2017-02-05T12:17:10.106Z,992.07
2017-02-05T12:18:10.119Z,992.08
2017-02-05T12:19:10.135Z,992.1
2017-02-05T12:20:10.148Z,992.05
2017-02-05T12:21:10.163Z,992.03
2017-02-05T12:22:10.175Z,992.07
2017-02-05T12:23:10.191Z,992.08
2017-02-05T12:24:10.206Z,992.04
2017-02-05T12:25:10.220Z,992.03
2017-02-05T12:26:10.235Z,992.03
2017-02-05T12:27:10.248Z,992.04
2017-02-05T12:28:10.264Z,992.06
2017-02-05T12:29:10.277Z,992.06
2017-02-05T12:30:10.291Z,992.03
2017-02-05T12:31:10.305Z,992.04